METAR AND TAF INFORMATION
METAR FOR KPDX
ADDS - METARS form results

(1348 UTC 29 November 2020)
Data provider http://aviationweather.gov/metar/data/
 
METAR text: KPDX 291309Z 00000KT 1SM R10R/P6000FT BR OVC004 06/04 A3027 RMK AO2 T00560044
Conditions at: KPDX (PORTLAND , OR, US) observed 1309 UTC 29 November 2020
Temperature: 5.6°C (42°F)
Dewpoint: 4.4°C (40°F) [RH = 92%]
Pressure (altimeter): 30.27 inches Hg (1025.1 mb)
Winds: calm
Visibility: 1.00 miles (1.61 km)
Ceiling: 400 feet AGL
Clouds: overcast cloud deck at 400 feet AGL
Weather: BR  (mist)

METAR text: KPDX 291306Z 01003KT 1/2SM R10R/P6000FT BR OVC004 06/04 A3027 RMK AO2 SFC VIS 1 T00560044
Conditions at: KPDX (PORTLAND , OR, US) observed 1306 UTC 29 November 2020
Temperature: 5.6°C (42°F)
Dewpoint: 4.4°C (40°F) [RH = 92%]
Pressure (altimeter): 30.27 inches Hg (1025.1 mb)
Winds: from the N (10 degrees) at 3 MPH (3 knots; 1.5 m/s)
Visibility: 0.50 miles (0.80 km)
Ceiling: 400 feet AGL
Clouds: overcast cloud deck at 400 feet AGL
Weather: BR  (mist)

METAR text: KPDX 291253Z 35003KT 1/2SM R10R/P6000FT BR OVC002 06/04 A3028 RMK AO2 SFC VIS 1 SLP252 T00560044
Conditions at: KPDX (PORTLAND , OR, US) observed 1253 UTC 29 November 2020
Temperature: 5.6°C (42°F)
Dewpoint: 4.4°C (40°F) [RH = 92%]
Pressure (altimeter): 30.28 inches Hg (1025.5 mb)
[Sea-level pressure: 1025.2 mb]
Winds: from the N (350 degrees) at 3 MPH (3 knots; 1.5 m/s)
Visibility: 0.50 miles (0.80 km)
Ceiling: 200 feet AGL
Clouds: overcast cloud deck at 200 feet AGL
Weather: BR  (mist)

Forecast for: KPDX (PORTLAND , OR, US)
Text: KPDX 291257Z 2913/3012 35003KT 1SM BR OVC002
Forecast period: 1300 to 1600 UTC 29 November 2020
Forecast type: FROM: standard forecast or significant change
Winds: from the N (350 degrees) at 3 MPH (3 knots; 1.5 m/s)
Visibility: 1.00 miles (1.61 km)
Ceiling: 200 feet AGL
Clouds: overcast cloud deck at 200 feet AGL
Weather: BR  (mist)
Text: FM291600 VRB03KT 3SM BR OVC005
Forecast period: 1600 to 1800 UTC 29 November 2020
Forecast type: FROM: standard forecast or significant change
Winds: variable direction winds at 3 MPH (3 knots; 1.5 m/s)
Visibility: 3 miles (5 km)
Ceiling: 500 feet AGL
Clouds: overcast cloud deck at 500 feet AGL
Weather: BR  (mist)
Text: FM291800 08005KT P6SM SCT035 BKN120
Forecast period: 1800 UTC 29 November 2020 to 0900 UTC 30 November 2020
Forecast type: FROM: standard forecast or significant change
Winds: from the E (80 degrees) at 6 MPH (5 knots; 2.6 m/s)
Visibility: 6 or more miles (10+ km)
Ceiling: 12000 feet AGL
Clouds: scattered clouds at 3500 feet AGL
broken clouds at 12000 feet AGL
Weather: no significant weather forecast for this period
Text: FM300900 13008KT P6SM -RA OVC050
Forecast period: 0900 to 1200 UTC 30 November 2020
Forecast type: FROM: standard forecast or significant change
Winds: from the SE (130 degrees) at 9 MPH (8 knots; 4.1 m/s)
Visibility: 6 or more miles (10+ km)
Ceiling: 5000 feet AGL
Clouds: overcast cloud deck at 5000 feet AGL
Weather: -RA  (light rain)

 AIRPORT MAP

 RUNWAY INFORMATION
Runway 03 Runway length 7001 ft Runway width 150 ft
Runway elevation 22 ft Runway displaced threshold 0 ft Runway heading 45
Runway 21 Runway length 7001 ft Runway width 150 ft
Runway elevation 27 ft Runway displaced threshold 680 ft Runway heading 225
Runway 10L Runway length 8000 ft Runway width 150 ft
Runway elevation 29 ft Runway displaced threshold 0 ft Runway heading 119
Runway 28R Runway length 8000 ft Runway width 150 ft
Runway elevation 29 ft Runway displaced threshold 0 ft Runway heading 299
Runway 10R Runway length 11000 ft Runway width 150 ft
Runway elevation 22 ft Runway displaced threshold 0 ft Runway heading 119
Runway 28L Runway length 11000 ft Runway width 150 ft
Runway elevation 23 ft Runway displaced threshold 0 ft Runway heading 299

 AIRPORT FREQUENCIES
Type ACP Name 939 ARW CO Frequency 124.35 MHZ
Type APP Name APP Frequency 29.92 MHZ
Type APP Name APP Frequency 118.1 MHZ
Type ATIS Name ATIS Frequency 120.625 MHZ
Type CLD Name CLNC DEL Frequency 120.125 MHZ
Type DEP Name DEP Frequency 118.1 MHZ
Type GND Name GND Frequency 121.9 MHZ
Type OPS Name ANG BASE O Frequency 28.05 MHZ
Type TWR Name TWR Frequency 118.7 MHZ
Type UNIC Name UNICOM Frequency 122.95 MHZ

 AIRPORT NEAR NAVIGATION AIDS
Type TACAN Name Columbia Frequency 109200 KHZ
Type VOR-DME Name Portland Frequency 111800 KHZ



Powered by Heron Airways VA. All Rights Reserved © 2009 [v2.6.2]